Main page
METAR-TAF:

METAR-TAF

Airports :

Rabat–Salé Airport

Rabat, Morocco

latitude: 34-03N, longitude: 006-46W, elevation: 84 m

Current weather observation

The report was made 32 minutes ago, at 21:30 UTC
Wind 4 kt from the North, varying between Northwest and North
Temperature 22°C
Humidity 78%
Pressure 1015 hPa
Visibility: 6000 m
Broken clouds at a height of 1600 ft

METAR: GMME 092130Z 35004KT 310V010 6000 BKN016 22/18 Q1015 NOSIG

Time: 23:02 (22:02 UTC)

Forecast

The report was made 5 hours and 2 minutes ago, at 17:00 UTC
Forecast valid from 09 at 18 UTC to 10 at 24 UTC
Wind 8 kt from the West/Northwest
Visibility: 6000 m
Broken clouds at a height of 1600 ft
Temporary
from 10 at 00 UTC to 10 at 07 UTC
Wind kt from the North
Becoming
from 10 at 08 UTC to 10 at 12 UTC
Wind 12 kt from the North
Visibility 10 km or more
Scattered clouds at a height of 2000 ft

TAF: GMME 091700Z 0918/1024 30008KT 6000 BKN016 TEMPO 1000/1007 00000KT BECMG 1008/1012 36012KT 9999 SCT020

Weather observations and forecasts of more than 4000 airports (METAR and TAF reports).

The available stations are represented by yellow and red dots on the map.

Hover mouse over dot to see the name of the station.

Then click to see weather observations and forecasts.

To change the map : click on the green buttons with a black cross to zoom in, on the green button with a dash to zoom out, or on the green arrows for adjacent maps.


METAR-TAF: